Time;durP1;ratioP1;P1;durP2;ratioP2;P2;SDS_P1;SDS_P2;PMS_P1;PMS_P2;Temp;Humidity;BMP_temperature;BMP_pressure;BME280_temperature;BME280_humidity;BME280_pressure;Samples;Min_cycle;Max_cycle;Signal;HPM_P1;HPM_P2
2023/07/05 00:00:43;;;;;;;7.30;4.15;;;13.90;99.90;;;;;;5038209;28;20041;-65
2023/07/05 00:03:09;;;;;;;11.55;5.63;;;13.90;99.90;;;;;;5039847;28;20046;-63
2023/07/05 00:05:36;;;;;;;7.47;4.30;;;13.90;99.90;;;;;;5032338;28;20041;-63
2023/07/05 00:08:02;;;;;;;9.35;4.57;;;13.90;99.90;;;;;;5036632;28;20164;-63
2023/07/05 00:10:27;;;;;;;9.80;4.97;;;13.90;99.90;;;;;;5036997;28;20099;-64
2023/07/05 00:12:53;;;;;;;9.57;4.72;;;13.90;99.90;;;;;;5041661;28;20037;-64
2023/07/05 00:15:18;;;;;;;12.45;5.60;;;13.90;99.90;;;;;;5042305;28;20119;-64
2023/07/05 00:17:44;;;;;;;11.38;5.38;;;13.90;99.90;;;;;;5048865;28;20166;-64
2023/07/05 00:20:10;;;;;;;7.13;5.00;;;13.90;99.90;;;;;;5045610;28;20065;-64
2023/07/05 00:22:36;;;;;;;8.25;5.13;;;14.00;99.90;;;;;;5037164;28;20037;-63
2023/07/05 00:25:02;;;;;;;8.65;5.10;;;13.90;99.90;;;;;;5035570;28;20040;-64
2023/07/05 00:27:28;;;;;;;13.80;5.15;;;13.90;99.90;;;;;;5046314;28;20045;-64
2023/07/05 00:29:54;;;;;;;10.75;5.28;;;13.90;99.90;;;;;;5048725;28;20045;-64
2023/07/05 00:32:20;;;;;;;8.85;5.20;;;13.70;99.90;;;;;;5047493;28;20491;-64
2023/07/05 00:34:46;;;;;;;8.77;5.10;;;13.80;99.90;;;;;;5048829;28;20080;-63
2023/07/05 00:37:12;;;;;;;8.13;4.30;;;13.70;99.90;;;;;;5051212;28;20068;-63
2023/07/05 00:39:37;;;;;;;9.70;5.00;;;13.80;99.90;;;;;;5049950;28;20037;-63
2023/07/05 00:42:04;;;;;;;10.95;4.70;;;13.80;99.90;;;;;;5049321;28;20033;-65
2023/07/05 00:44:30;;;;;;;11.13;5.40;;;13.80;99.90;;;;;;5047926;28;20038;-63
2023/07/05 00:47:06;;;;;;;11.02;5.45;;;13.80;99.90;;;;;;5042650;28;20049;-63
2023/07/05 00:49:33;;;;;;;11.52;5.88;;;13.80;99.90;;;;;;5031880;28;20144;-64
2023/07/05 00:52:04;;;;;;;10.57;6.03;;;13.80;99.90;;;;;;5045644;28;20056;-63
2023/07/05 00:54:39;;;;;;;11.15;5.53;;;13.80;99.90;;;;;;5031140;28;20081;-63
2023/07/05 00:57:17;;;;;;;11.48;5.60;;;13.80;99.90;;;;;;5043949;28;20041;-63
2023/07/05 01:00:06;;;;;;;12.70;6.38;;;13.80;99.90;;;;;;5044382;28;20142;-63
2023/07/05 01:02:32;;;;;;;10.65;5.80;;;13.80;99.90;;;;;;5039908;28;20052;-63
2023/07/05 01:05:00;;;;;;;7.88;5.50;;;13.80;99.90;;;;;;5048153;28;20044;-63
2023/07/05 01:07:26;;;;;;;10.82;5.68;;;13.80;99.90;;;;;;5037434;28;20104;-64
2023/07/05 01:09:51;;;;;;;15.10;5.70;;;13.80;99.90;;;;;;5045367;28;20099;-63
2023/07/05 01:12:43;;;;;;;11.90;5.95;;;13.80;99.90;;;;;;5035773;28;20125;-63
2023/07/05 01:15:16;;;;;;;9.93;5.97;;;13.90;99.90;;;;;;5038049;28;20143;-63
2023/07/05 01:17:56;;;;;;;9.90;6.05;;;13.80;99.90;;;;;;5029255;28;20065;-63
2023/07/05 01:20:41;;;;;;;13.30;6.45;;;13.80;99.90;;;;;;5037205;28;20045;-63
2023/07/05 01:23:37;;;;;;;13.93;6.20;;;13.90;99.90;;;;;;5039660;28;20041;-64
2023/07/05 01:26:26;;;;;;;13.80;6.45;;;13.90;99.90;;;;;;5044301;28;20033;-63
2023/07/05 01:29:18;;;;;;;10.18;6.47;;;13.80;99.90;;;;;;5029130;28;20065;-64
2023/07/05 01:32:14;;;;;;;14.50;6.95;;;13.80;99.90;;;;;;5038556;28;20049;-63
2023/07/05 01:34:51;;;;;;;15.18;7.50;;;13.80;99.90;;;;;;5046974;28;20045;-64
2023/07/05 01:37:29;;;;;;;13.55;7.38;;;13.80;99.90;;;;;;5033986;28;20053;-64
2023/07/05 01:39:54;;;;;;;21.23;7.63;;;13.80;99.90;;;;;;5042359;28;20675;-64
2023/07/05 01:42:26;;;;;;;16.27;8.18;;;13.80;99.90;;;;;;5043521;28;20055;-64
2023/07/05 01:44:51;;;;;;;12.55;7.18;;;13.80;99.90;;;;;;5036287;28;20132;-64
2023/07/05 01:47:28;;;;;;;19.35;8.60;;;13.70;99.90;;;;;;5034402;28;20499;-65
2023/07/05 01:50:15;;;;;;;21.42;9.20;;;13.70;99.90;;;;;;5041401;28;20064;-65
2023/07/05 01:52:51;;;;;;;13.82;8.02;;;13.70;99.90;;;;;;5029105;28;22791;-66
2023/07/05 01:55:36;;;;;;;24.25;8.82;;;13.50;99.90;;;;;;5040789;28;20341;-67
2023/07/05 01:58:09;;;;;;;22.38;8.68;;;13.50;99.90;;;;;;5030756;28;20384;-68
2023/07/05 02:00:38;;;;;;;17.50;8.90;;;13.70;99.90;;;;;;5039900;28;20045;-65
2023/07/05 02:03:08;;;;;;;19.23;9.15;;;13.50;99.90;;;;;;5041238;28;20033;-66
2023/07/05 02:05:34;;;;;;;;;;;13.40;99.90;;;;;;5033602;28;20418;-65
2023/07/05 02:08:00;;;;;;;20.17;8.95;;;13.60;99.90;;;;;;5031169;28;19923;-66
2023/07/05 02:10:27;;;;;;;18.23;9.25;;;13.40;99.90;;;;;;5040676;28;20037;-67
2023/07/05 02:12:54;;;;;;;18.60;10.05;;;13.40;99.90;;;;;;5037926;28;20065;-66
2023/07/05 02:15:21;;;;;;;16.60;9.50;;;13.60;99.90;;;;;;5036080;28;20468;-66
2023/07/05 02:17:47;;;;;;;18.83;9.20;;;13.60;99.90;;;;;;5032402;28;20094;-67
2023/07/05 02:20:13;;;;;;;16.38;9.35;;;13.50;99.90;;;;;;5038110;28;20041;-67
2023/07/05 02:22:38;;;;;;;19.08;9.63;;;13.60;99.90;;;;;;5034855;28;20123;-69
2023/07/05 02:25:04;;;;;;;19.88;8.73;;;13.40;99.90;;;;;;5040544;28;20127;-66
2023/07/05 02:27:30;;;;;;;19.85;9.43;;;13.30;99.90;;;;;;5036239;28;20036;-67
2023/07/05 02:29:56;;;;;;;18.65;9.88;;;13.30;99.90;;;;;;5043328;28;20049;-66
2023/07/05 02:32:23;;;;;;;16.60;8.93;;;13.40;99.90;;;;;;5043979;28;20322;-66
2023/07/05 02:34:49;;;;;;;23.15;9.23;;;13.60;99.90;;;;;;5041713;28;20041;-66
2023/07/05 02:37:15;;;;;;;23.38;10.32;;;13.30;99.90;;;;;;5048046;28;20404;-66
2023/07/05 02:39:41;;;;;;;20.52;9.88;;;13.70;99.90;;;;;;5048385;28;20048;-67
2023/07/05 02:42:08;;;;;;;22.17;10.90;;;13.70;99.90;;;;;;5045576;28;20060;-67
2023/07/05 02:44:33;;;;;;;21.20;10.02;;;13.50;99.90;;;;;;5046637;28;20090;-68
2023/07/05 02:46:59;;;;;;;19.70;10.68;;;13.30;99.90;;;;;;5046451;28;20036;-66
2023/07/05 02:49:25;;;;;;;20.40;11.02;;;13.40;99.90;;;;;;5051382;28;20049;-66
2023/07/05 02:51:51;;;;;;;19.65;11.07;;;13.50;99.90;;;;;;5037875;28;20033;-67
2023/07/05 02:54:17;;;;;;;20.10;10.30;;;13.70;99.90;;;;;;5050075;28;20099;-66
2023/07/05 02:56:42;;;;;;;22.20;10.85;;;13.50;99.90;;;;;;5051253;28;20044;-66
2023/07/05 02:59:08;;;;;;;19.20;11.00;;;13.50;99.90;;;;;;5040091;28;20462;-66
2023/07/05 03:01:33;;;;;;;21.25;10.13;;;13.60;99.90;;;;;;5045417;28;20043;-67
2023/07/05 03:03:59;;;;;;;29.33;11.35;;;13.50;99.90;;;;;;5042896;28;20119;-67
2023/07/05 03:06:24;;;;;;;23.90;11.32;;;13.30;99.90;;;;;;5032287;28;20037;-65
2023/07/05 03:08:50;;;;;;;19.35;10.15;;;13.80;99.90;;;;;;5033306;28;20130;-65
2023/07/05 03:11:16;;;;;;;22.08;10.80;;;13.40;99.90;;;;;;5037651;28;20036;-65
2023/07/05 03:13:41;;;;;;;24.02;11.35;;;13.80;99.90;;;;;;5041187;28;20045;-65
2023/07/05 03:16:07;;;;;;;19.27;11.02;;;13.70;99.90;;;;;;5039480;28;20411;-64
2023/07/05 03:18:34;;;;;;;27.10;11.50;;;13.60;99.90;;;;;;5035496;28;20156;-64
2023/07/05 03:20:59;;;;;;;20.85;10.52;;;13.80;99.90;;;;;;5038651;28;20059;-67
2023/07/05 03:23:25;;;;;;;22.65;11.30;;;13.60;99.90;;;;;;5035711;28;20120;-66
2023/07/05 03:25:58;;;;;;;21.52;11.30;;;13.80;99.90;;;;;;5047574;28;20041;-64
2023/07/05 03:28:26;;;;;;;24.48;11.70;;;13.90;99.90;;;;;;5039253;28;20133;-65
2023/07/05 03:30:56;;;;;;;20.88;10.93;;;13.90;99.90;;;;;;5045703;28;20075;-65
2023/07/05 03:33:21;;;;;;;24.40;11.07;;;13.60;99.90;;;;;;5040204;28;20483;-65
2023/07/05 03:36:03;;;;;;;20.98;11.20;;;13.70;99.90;;;;;;5035840;28;20116;-65
2023/07/05 03:38:30;;;;;;;20.98;11.02;;;13.70;99.90;;;;;;5043720;28;20125;-66
2023/07/05 03:41:05;;;;;;;23.10;11.13;;;13.80;99.90;;;;;;5035744;28;20292;-65
2023/07/05 03:43:35;;;;;;;22.52;11.52;;;13.50;99.90;;;;;;5033783;28;20037;-65
2023/07/05 03:46:02;;;;;;;18.40;11.30;;;13.90;99.90;;;;;;5035636;28;20045;-65
2023/07/05 03:48:30;;;;;;;21.42;11.13;;;13.60;99.90;;;;;;5043536;28;20146;-65
2023/07/05 03:50:57;;;;;;;21.63;11.50;;;13.70;99.90;;;;;;5034554;28;20503;-65
2023/07/05 03:53:23;;;;;;;22.25;11.30;;;13.80;99.90;;;;;;5039983;28;20048;-65
2023/07/05 03:55:49;;;;;;;22.63;11.57;;;13.60;99.90;;;;;;5041304;28;20052;-66
2023/07/05 03:58:14;;;;;;;28.40;11.30;;;13.70;99.90;;;;;;5032234;28;20033;-66
2023/07/05 04:00:40;;;;;;;19.90;10.55;;;14.00;99.90;;;;;;5034578;28;20093;-66
2023/07/05 04:03:05;;;;;;;23.02;11.45;;;13.90;99.90;;;;;;5039072;28;20067;-66
2023/07/05 04:05:32;;;;;;;20.40;10.35;;;13.70;99.90;;;;;;5041167;28;20042;-65
2023/07/05 04:07:58;;;;;;;21.27;11.32;;;13.80;99.90;;;;;;5036901;28;20046;-65
2023/07/05 04:10:23;;;;;;;20.38;11.02;;;13.90;99.90;;;;;;5032945;28;20051;-66
2023/07/05 04:12:49;;;;;;;23.17;11.40;;;14.20;99.90;;;;;;5032687;28;20503;-65
2023/07/05 04:15:15;;;;;;;22.45;12.55;;;13.70;99.90;;;;;;5043170;28;20649;-66
2023/07/05 04:17:40;;;;;;;21.05;11.43;;;13.80;99.90;;;;;;5033588;28;20099;-65
2023/07/05 04:20:06;;;;;;;20.52;11.90;;;14.10;99.90;;;;;;5031467;28;20080;-66
2023/07/05 04:22:35;;;;;;;19.30;11.38;;;14.40;99.90;;;;;;5041775;28;20045;-65
2023/07/05 04:25:01;;;;;;;20.73;12.45;;;14.10;99.90;;;;;;5041455;28;20037;-64
2023/07/05 04:27:27;;;;;;;21.05;11.73;;;14.00;99.90;;;;;;5033828;28;20052;-65
2023/07/05 04:29:52;;;;;;;22.45;12.13;;;14.40;99.90;;;;;;5045300;28;20670;-65
2023/07/05 04:32:18;;;;;;;17.58;11.68;;;14.10;99.90;;;;;;5045913;28;20752;-64
2023/07/05 04:34:43;;;;;;;18.48;10.75;;;14.20;99.90;;;;;;5046833;28;20039;-64
2023/07/05 04:37:09;;;;;;;19.15;10.75;;;14.50;99.90;;;;;;5049641;28;20040;-64
2023/07/05 04:39:35;;;;;;;17.38;10.35;;;14.50;99.90;;;;;;5048393;28;20041;-64
2023/07/05 04:42:00;;;;;;;19.73;10.35;;;14.50;99.90;;;;;;5048763;28;20037;-65
2023/07/05 04:44:26;;;;;;;17.95;10.02;;;14.50;99.90;;;;;;5046202;28;20036;-64
2023/07/05 04:46:51;;;;;;;15.52;9.52;;;14.50;99.90;;;;;;5040296;28;20303;-63
2023/07/05 04:49:17;;;;;;;16.05;9.10;;;14.20;99.90;;;;;;5045661;28;20053;-64
2023/07/05 04:51:42;;;;;;;14.60;7.63;;;14.40;99.90;;;;;;5043638;28;20052;-64
2023/07/05 04:54:08;;;;;;;15.93;7.88;;;14.40;99.90;;;;;;5050336;28;20124;-63
2023/07/05 04:56:34;;;;;;;10.23;6.00;;;14.30;99.90;;;;;;5046537;28;20060;-63
2023/07/05 04:58:59;;;;;;;7.53;5.20;;;14.40;99.90;;;;;;5046750;28;20052;-63
2023/07/05 05:01:25;;;;;;;8.05;4.28;;;14.00;99.90;;;;;;5040440;28;20404;-64
2023/07/05 05:03:51;;;;;;;8.02;4.00;;;14.10;99.90;;;;;;5041561;28;20075;-64
2023/07/05 05:06:17;;;;;;;6.95;4.03;;;13.60;99.90;;;;;;5042079;28;20060;-63
2023/07/05 05:08:43;;;;;;;9.18;3.92;;;13.70;99.90;;;;;;5040115;28;20140;-64
2023/07/05 05:11:08;;;;;;;6.80;4.43;;;13.30;99.90;;;;;;5045892;28;20362;-63
2023/07/05 05:13:36;;;;;;;9.55;3.88;;;13.20;99.90;;;;;;5035237;28;20037;-64
2023/07/05 05:16:02;;;;;;;9.98;4.50;;;13.10;99.90;;;;;;5033630;28;20596;-63
2023/07/05 05:18:30;;;;;;;9.90;4.95;;;13.20;99.90;;;;;;5031343;28;20158;-64
2023/07/05 05:20:56;;;;;;;6.50;4.68;;;13.00;99.90;;;;;;5038790;28;20037;-63
2023/07/05 05:23:22;;;;;;;9.55;4.57;;;13.10;99.90;;;;;;5046132;28;20123;-63
2023/07/05 05:25:48;;;;;;;9.45;4.65;;;13.00;99.90;;;;;;5037483;28;20124;-62
2023/07/05 05:28:15;;;;;;;7.97;4.60;;;13.00;99.90;;;;;;5032432;28;20509;-63
2023/07/05 05:30:43;;;;;;;7.70;4.72;;;12.80;99.90;;;;;;5032576;28;20036;-63
2023/07/05 05:33:09;;;;;;;7.95;5.03;;;12.80;99.90;;;;;;5032253;28;20033;-63
2023/07/05 05:35:35;;;;;;;8.38;4.75;;;12.90;99.90;;;;;;5037805;28;20401;-63
2023/07/05 05:38:02;;;;;;;7.68;5.32;;;12.80;99.90;;;;;;5035504;28;20118;-69
2023/07/05 05:40:28;;;;;;;7.55;5.03;;;12.90;99.90;;;;;;5032735;28;20048;-66
2023/07/05 05:42:53;;;;;;;6.90;4.45;;;13.00;99.90;;;;;;5025926;28;20029;-64
2023/07/05 05:45:19;;;;;;;9.02;5.20;;;12.90;99.90;;;;;;5032873;28;20076;-65
2023/07/05 05:47:45;;;;;;;7.13;3.85;;;13.10;99.90;;;;;;5049486;28;20062;-66
2023/07/05 05:50:11;;;;;;;6.68;4.32;;;13.20;99.90;;;;;;5042614;28;20033;-65
2023/07/05 05:52:36;;;;;;;6.60;4.43;;;13.20;99.90;;;;;;5039777;28;20132;-65
2023/07/05 05:55:03;;;;;;;8.50;4.00;;;13.20;99.90;;;;;;5034726;28;20084;-67
2023/07/05 05:57:29;;;;;;;7.57;4.40;;;13.10;99.90;;;;;;5039810;28;20521;-64
2023/07/05 05:59:55;;;;;;;8.13;4.70;;;13.20;99.90;;;;;;5037107;28;20044;-66
2023/07/05 06:02:21;;;;;;;6.13;4.30;;;13.20;99.90;;;;;;5040831;28;20100;-65
2023/07/05 06:04:46;;;;;;;5.68;4.03;;;13.20;99.90;;;;;;5041914;28;20041;-66
2023/07/05 06:07:12;;;;;;;6.45;3.80;;;13.20;99.90;;;;;;5037784;28;20037;-66
2023/07/05 06:09:48;;;;;;;8.20;3.97;;;13.10;99.90;;;;;;5036599;28;20068;-65
2023/07/05 06:12:14;;;;;;;7.97;3.65;;;13.10;99.90;;;;;;5027523;28;20100;-66
2023/07/05 06:14:39;;;;;;;5.40;3.33;;;13.00;99.90;;;;;;5026390;28;21087;-65
2023/07/05 06:17:06;;;;;;;5.30;3.58;;;13.10;99.90;;;;;;5033053;28;20073;-66
2023/07/05 06:19:31;;;;;;;5.93;3.13;;;13.10;99.90;;;;;;5037667;28;20041;-63
2023/07/05 06:21:57;;;;;;;5.40;3.45;;;12.90;99.90;;;;;;5032956;28;20136;-64
2023/07/05 06:24:23;;;;;;;7.30;2.95;;;13.20;99.90;;;;;;5039861;28;20055;-64
2023/07/05 06:26:48;;;;;;;6.47;3.42;;;13.20;99.90;;;;;;5043833;28;20041;-67
2023/07/05 06:29:14;;;;;;;5.03;2.90;;;13.30;99.90;;;;;;5031678;28;20076;-64
2023/07/05 06:31:40;;;;;;;6.70;3.28;;;13.40;99.90;;;;;;5032110;28;20049;-65
2023/07/05 06:34:05;;;;;;;4.93;2.97;;;13.60;99.90;;;;;;5049137;28;20041;-64
2023/07/05 06:36:31;;;;;;;5.45;3.17;;;13.70;99.90;;;;;;5049066;28;20048;-65
2023/07/05 06:38:57;;;;;;;6.45;2.75;;;14.10;99.90;;;;;;5047806;28;20452;-65
2023/07/05 06:41:22;;;;;;;8.07;3.13;;;14.40;99.90;;;;;;5049060;28;20037;-64
2023/07/05 06:43:48;;;;;;;5.80;2.97;;;14.60;99.90;;;;;;5047364;28;20499;-66
2023/07/05 06:46:14;;;;;;;6.78;3.30;;;14.60;99.90;;;;;;5033811;28;20129;-66
2023/07/05 06:48:39;;;;;;;5.30;2.85;;;14.60;99.90;;;;;;5027042;28;20076;-67
2023/07/05 06:51:05;;;;;;;3.80;2.53;;;14.50;99.90;;;;;;5037354;28;20051;-65
2023/07/05 06:53:30;;;;;;;7.15;3.47;;;14.70;99.90;;;;;;5038598;28;20041;-68
2023/07/05 06:55:56;;;;;;;8.27;3.15;;;14.90;99.90;;;;;;5040637;28;20861;-66
2023/07/05 06:58:22;;;;;;;5.50;3.35;;;15.10;99.90;;;;;;5036742;28;20428;-67
2023/07/05 07:00:49;;;;;;;5.15;3.20;;;15.20;99.90;;;;;;5030934;28;20439;-69
2023/07/05 07:03:15;;;;;;;4.43;3.15;;;15.30;99.20;;;;;;5039633;28;20435;-71
2023/07/05 07:05:47;;;;;;;7.50;3.08;;;15.40;97.50;;;;;;5042510;28;20469;-68
2023/07/05 07:08:13;;;;;;;5.45;3.03;;;15.60;95.30;;;;;;5036613;28;20111;-71
2023/07/05 07:10:38;;;;;;;5.93;3.20;;;15.70;93.50;;;;;;5019422;28;20140;-66
2023/07/05 07:13:04;;;;;;;7.28;2.95;;;15.90;97.50;;;;;;5041210;28;20045;-68
2023/07/05 07:15:30;;;;;;;5.70;3.00;;;15.80;94.70;;;;;;5025431;28;20033;-67
2023/07/05 07:17:55;;;;;;;5.57;2.95;;;15.70;96.20;;;;;;5040009;28;20396;-69
2023/07/05 07:20:25;;;;;;;5.93;2.83;;;15.80;95.90;;;;;;5037978;28;20419;-70
2023/07/05 07:22:51;;;;;;;6.57;2.85;;;15.60;96.40;;;;;;5044184;28;20414;-67
2023/07/05 07:25:17;;;;;;;4.25;2.42;;;15.80;93.10;;;;;;5039479;28;20045;-69
2023/07/05 07:27:43;;;;;;;4.00;2.70;;;16.20;92.60;;;;;;5031446;28;20288;-68
2023/07/05 07:30:09;;;;;;;5.13;2.55;;;16.60;90.00;;;;;;5046182;28;20048;-68
2023/07/05 07:32:34;;;;;;;5.65;3.15;;;16.60;90.80;;;;;;5034459;28;20443;-67
2023/07/05 07:35:00;;;;;;;4.88;2.33;;;16.70;88.30;;;;;;5042830;28;20441;-69
2023/07/05 07:37:25;;;;;;;4.22;2.63;;;16.20;86.70;;;;;;5045975;28;20071;-68
2023/07/05 07:39:51;;;;;;;4.82;2.83;;;15.40;92.60;;;;;;5038929;28;20113;-65
2023/07/05 07:42:16;;;;;;;5.18;3.15;;;15.00;96.20;;;;;;5040715;28;20033;-66
2023/07/05 07:44:42;;;;;;;4.75;3.00;;;14.60;96.60;;;;;;5042808;28;20113;-65
2023/07/05 07:47:07;;;;;;;4.40;2.53;;;14.40;99.10;;;;;;5037582;28;20571;-65
2023/07/05 07:49:33;;;;;;;6.15;3.17;;;14.20;97.70;;;;;;5032426;28;20168;-67
2023/07/05 07:51:59;;;;;;;5.38;2.92;;;14.00;99.20;;;;;;5036722;28;20136;-66
2023/07/05 07:54:26;;;;;;;5.40;3.28;;;14.00;99.90;;;;;;5036429;28;20131;-65
2023/07/05 07:56:55;;;;;;;10.73;3.35;;;14.00;99.90;;;;;;5042006;28;20752;-65
2023/07/05 07:59:21;;;;;;;3.85;2.00;;;13.80;99.90;;;;;;5038201;28;20045;-65
2023/07/05 08:01:47;;;;;;;3.80;2.05;;;13.40;99.90;;;;;;5031128;28;20037;-66
2023/07/05 08:04:14;;;;;;;3.53;1.00;;;13.00;99.90;;;;;;5040279;28;20052;-65
2023/07/05 08:06:46;;;;;;;1.35;0.70;;;12.50;99.90;;;;;;5039366;28;20060;-66
2023/07/05 08:09:15;;;;;;;2.30;1.00;;;12.10;99.90;;;;;;5036730;28;20047;-66
2023/07/05 08:11:41;;;;;;;2.30;1.20;;;12.10;99.90;;;;;;5037398;28;20959;-67
2023/07/05 08:14:08;;;;;;;1.70;1.00;;;12.10;99.90;;;;;;5037651;28;20498;-70
2023/07/05 08:16:34;;;;;;;3.55;0.98;;;12.10;99.90;;;;;;5011818;28;20057;-67
2023/07/05 08:19:00;;;;;;;0.98;0.65;;;11.90;99.90;;;;;;5045994;28;20128;-69
2023/07/05 08:21:26;;;;;;;3.35;0.80;;;11.90;99.90;;;;;;5043899;28;20132;-64
2023/07/05 08:23:52;;;;;;;1.70;1.00;;;12.00;99.90;;;;;;5021003;28;20083;-69
2023/07/05 08:26:17;;;;;;;2.38;0.57;;;12.00;99.90;;;;;;5040759;28;20110;-69
2023/07/05 08:28:45;;;;;;;2.03;0.90;;;11.90;99.90;;;;;;5034582;28;20075;-68
2023/07/05 08:31:10;;;;;;;1.27;0.55;;;11.90;99.90;;;;;;5034439;28;20036;-70
2023/07/05 08:33:36;;;;;;;2.72;0.80;;;11.70;99.90;;;;;;5034449;28;20131;-69
2023/07/05 08:36:35;;;;;;;2.65;0.90;;;11.60;99.90;;;;;;5034817;28;20043;-70
2023/07/05 08:39:03;;;;;;;1.25;0.70;;;11.50;99.90;;;;;;5054331;28;20124;-68
2023/07/05 08:41:41;;;;;;;3.00;0.77;;;11.50;99.90;;;;;;5030674;28;20425;-69
2023/07/05 08:44:25;;;;;;;1.83;0.50;;;11.40;99.90;;;;;;5040275;28;20041;-65
2023/07/05 08:47:08;;;;;;;4.65;1.08;;;11.40;99.90;;;;;;5035528;28;20077;-66
2023/07/05 08:49:45;;;;;;;3.30;0.90;;;11.40;99.90;;;;;;5064286;28;20098;-67
2023/07/05 08:52:21;;;;;;;1.50;0.80;;;11.40;99.90;;;;;;5032249;28;20476;-68
2023/07/05 08:54:53;;;;;;;2.55;1.00;;;11.40;99.90;;;;;;5044976;28;20119;-70
2023/07/05 08:57:42;;;;;;;1.67;0.90;;;11.40;99.90;;;;;;5022885;28;20048;-64
2023/07/05 09:00:14;;;;;;;3.40;1.10;;;11.50;99.90;;;;;;5037635;28;20041;-65
2023/07/05 09:02:39;;;;;;;3.28;1.30;;;11.50;99.90;;;;;;5038265;28;20480;-67
2023/07/05 09:05:19;;;;;;;2.03;0.95;;;11.40;99.90;;;;;;5033113;28;20040;-71
2023/07/05 09:07:57;;;;;;;1.85;0.80;;;11.40;99.90;;;;;;5014727;28;20041;-67
2023/07/05 09:10:30;;;;;;;2.70;1.00;;;11.50;99.90;;;;;;5040258;28;20408;-66
2023/07/05 09:13:11;;;;;;;1.75;0.85;;;11.50;99.90;;;;;;5030998;28;20045;-69
2023/07/05 09:15:38;;;;;;;;;;;11.50;99.90;;;;;;5040860;28;20541;-67
2023/07/05 09:18:31;;;;;;;3.30;1.15;;;11.50;99.90;;;;;;5030593;28;20083;-66
2023/07/05 09:21:12;;;;;;;5.32;1.30;;;11.50;99.90;;;;;;5031085;28;20038;-67
2023/07/05 09:23:47;;;;;;;3.30;1.10;;;11.60;99.90;;;;;;5036240;28;20049;-66
2023/07/05 09:26:37;;;;;;;3.17;1.15;;;11.70;99.90;;;;;;5032427;28;20052;-68
2023/07/05 09:29:27;;;;;;;3.42;1.02;;;11.70;99.90;;;;;;5032494;28;20041;-69
2023/07/05 09:31:54;;;;;;;2.28;1.20;;;11.70;99.90;;;;;;5028663;28;20117;-67
2023/07/05 09:34:38;;;;;;;2.80;1.25;;;11.80;99.90;;;;;;5041621;28;20045;-72
2023/07/05 09:37:25;;;;;;;2.22;1.02;;;11.90;99.90;;;;;;5029564;28;20208;-69
2023/07/05 09:40:00;;;;;;;2.63;1.10;;;11.90;99.90;;;;;;5030026;28;20045;-67
2023/07/05 09:42:35;;;;;;;2.28;0.90;;;11.90;99.90;;;;;;5028583;28;20112;-67
2023/07/05 09:45:01;;;;;;;4.90;1.27;;;11.80;99.90;;;;;;5026669;28;20037;-67
2023/07/05 09:47:27;;;;;;;2.20;1.10;;;11.80;99.90;;;;;;5027455;28;20045;-68
2023/07/05 09:49:53;;;;;;;5.55;1.42;;;11.80;99.90;;;;;;5048715;28;20055;-67
2023/07/05 09:52:25;;;;;;;4.72;1.35;;;11.90;99.90;;;;;;5034569;28;20052;-68
2023/07/05 09:54:58;;;;;;;8.98;1.70;;;11.90;99.90;;;;;;5047555;28;20051;-65
2023/07/05 09:57:25;;;;;;;5.20;1.60;;;12.00;99.90;;;;;;5037191;28;20041;-70
2023/07/05 09:59:52;;;;;;;4.68;1.58;;;12.00;99.90;;;;;;5046117;28;20033;-68
2023/07/05 10:02:30;;;;;;;6.50;1.60;;;12.10;99.90;;;;;;5041327;28;20088;-65
2023/07/05 10:04:59;;;;;;;6.68;1.83;;;12.10;99.90;;;;;;5046641;28;20505;-69
2023/07/05 10:07:28;;;;;;;5.00;1.45;;;12.10;99.90;;;;;;5018205;28;20156;-66
2023/07/05 10:10:07;;;;;;;3.35;1.40;;;12.20;99.90;;;;;;5038628;28;20041;-68
2023/07/05 10:12:37;;;;;;;4.38;1.40;;;12.20;99.90;;;;;;5039862;28;20110;-67
2023/07/05 10:15:16;;;;;;;5.72;1.50;;;12.30;99.90;;;;;;5033827;28;20033;-68
2023/07/05 10:17:44;;;;;;;3.85;1.15;;;12.40;99.90;;;;;;5038181;28;20048;-67
2023/07/05 10:20:37;;;;;;;3.92;1.70;;;12.50;99.90;;;;;;5026378;28;20122;-67
2023/07/05 10:23:14;;;;;;;4.68;1.40;;;12.60;99.90;;;;;;5040140;28;20041;-66
2023/07/05 10:25:41;;;;;;;4.75;1.30;;;12.60;99.90;;;;;;5032751;28;20485;-68
2023/07/05 10:28:12;;;;;;;4.85;1.50;;;12.60;99.90;;;;;;5033046;28;20582;-67
2023/07/05 10:31:24;;;;;;;5.78;1.58;;;12.70;99.90;;;;;;5027467;28;20064;-67
2023/07/05 10:33:49;;;;;;;7.75;1.85;;;12.70;99.90;;;;;;5034789;28;20099;-67
2023/07/05 10:36:17;;;;;;;3.85;1.77;;;12.70;99.90;;;;;;5037191;28;20500;-67
2023/07/05 10:38:48;;;;;;;6.20;1.65;;;12.80;99.90;;;;;;5040057;28;20056;-69
2023/07/05 10:41:19;;;;;;;5.13;1.33;;;13.30;99.90;;;;;;5027421;28;20057;-68
2023/07/05 10:43:48;;;;;;;4.88;1.38;;;13.70;99.90;;;;;;5017706;28;20059;-68
2023/07/05 10:46:16;;;;;;;4.90;1.65;;;13.60;99.90;;;;;;5041636;28;20079;-67
2023/07/05 10:48:43;;;;;;;4.50;1.83;;;13.60;99.90;;;;;;5027736;28;20136;-69
2023/07/05 10:51:21;;;;;;;4.03;1.50;;;13.50;99.90;;;;;;5033908;28;20040;-67
2023/07/05 10:53:55;;;;;;;5.28;1.60;;;13.40;99.90;;;;;;5034531;28;20048;-68
2023/07/05 10:56:29;;;;;;;4.07;1.65;;;13.40;99.90;;;;;;5027794;28;20056;-67
2023/07/05 10:58:58;;;;;;;4.28;1.50;;;13.50;99.90;;;;;;5035254;28;20059;-68
2023/07/05 11:01:36;;;;;;;4.68;1.45;;;13.60;99.90;;;;;;5016619;28;20041;-67
2023/07/05 11:04:19;;;;;;;4.40;1.25;;;13.60;99.90;;;;;;5061729;28;20041;-69
2023/07/05 11:06:47;;;;;;;5.00;1.73;;;13.60;99.90;;;;;;5038795;28;20105;-68
2023/07/05 11:09:13;;;;;;;6.15;1.83;;;13.70;99.90;;;;;;5037975;28;20152;-67
2023/07/05 11:11:44;;;;;;;5.38;1.70;;;13.70;99.90;;;;;;5044430;28;20448;-66
2023/07/05 11:14:12;;;;;;;10.75;1.80;;;13.70;99.90;;;;;;5045894;28;20361;-67
2023/07/05 11:16:41;;;;;;;9.43;2.35;;;13.60;99.90;;;;;;5047080;28;20041;-67
2023/07/05 11:19:11;;;;;;;9.20;1.63;;;13.60;99.90;;;;;;5029484;28;20036;-68
2023/07/05 11:21:44;;;;;;;9.52;1.83;;;13.70;99.90;;;;;;5043212;28;20052;-68
2023/07/05 11:24:30;;;;;;;6.00;1.63;;;13.80;99.90;;;;;;5034885;28;20033;-66
2023/07/05 11:26:56;;;;;;;5.32;1.40;;;13.90;99.90;;;;;;5035091;28;20579;-68
2023/07/05 11:29:25;;;;;;;6.45;1.55;;;13.90;99.90;;;;;;5031078;28;20076;-68
2023/07/05 11:31:53;;;;;;;5.05;1.33;;;13.80;99.90;;;;;;5041987;28;20073;-67
2023/07/05 11:34:25;;;;;;;6.15;1.60;;;13.90;99.90;;;;;;5045112;28;20041;-67
2023/07/05 11:37:02;;;;;;;2.85;1.20;;;13.80;99.90;;;;;;5050900;28;20044;-66
2023/07/05 11:39:37;;;;;;;4.18;1.38;;;13.50;99.90;;;;;;5050183;28;20107;-67
2023/07/05 11:42:15;;;;;;;4.63;1.55;;;13.10;99.90;;;;;;5037837;28;20417;-68
2023/07/05 11:44:42;;;;;;;6.85;1.05;;;12.90;99.90;;;;;;5040724;28;20712;-69
2023/07/05 11:47:23;;;;;;;3.15;1.00;;;12.80;99.90;;;;;;5032415;28;20179;-68
2023/07/05 11:50:07;;;;;;;4.93;1.17;;;12.50;99.90;;;;;;5027627;28;20114;-68
2023/07/05 11:52:35;;;;;;;5.03;0.98;;;12.40;99.90;;;;;;5049250;28;20036;-69
2023/07/05 11:55:15;;;;;;;3.75;1.15;;;12.40;99.90;;;;;;5048011;28;20060;-70
2023/07/05 11:57:52;;;;;;;3.57;1.20;;;12.30;99.90;;;;;;5047113;28;20125;-69
2023/07/05 12:00:27;;;;;;;3.00;1.02;;;12.30;99.90;;;;;;5041935;28;20398;-66
2023/07/05 12:03:06;;;;;;;4.55;1.20;;;12.20;99.90;;;;;;5032503;28;20049;-68
2023/07/05 12:05:33;;;;;;;2.67;1.20;;;12.20;99.90;;;;;;5047758;28;20025;-70
2023/07/05 12:08:06;;;;;;;4.60;1.25;;;12.20;99.90;;;;;;5048514;28;20381;-68
2023/07/05 12:10:35;;;;;;;2.75;1.10;;;12.30;99.90;;;;;;5035602;28;20581;-70
2023/07/05 12:13:02;;;;;;;3.90;1.20;;;12.30;99.90;;;;;;5038733;28;20143;-67
2023/07/05 12:15:29;;;;;;;3.67;1.25;;;12.20;99.90;;;;;;5034148;28;20065;-73
2023/07/05 12:17:55;;;;;;;4.20;1.30;;;12.30;99.90;;;;;;5036757;28;20110;-66
2023/07/05 12:20:28;;;;;;;3.58;1.45;;;12.30;99.90;;;;;;5036973;28;20481;-67
2023/07/05 12:22:54;;;;;;;4.43;1.50;;;12.30;99.90;;;;;;5032517;28;20107;-71
2023/07/05 12:25:20;;;;;;;6.55;1.73;;;12.20;99.90;;;;;;5035830;28;20048;-68
2023/07/05 12:27:46;;;;;;;5.97;1.42;;;12.30;99.90;;;;;;5033821;28;20461;-67
2023/07/05 12:30:20;;;;;;;5.80;1.88;;;12.20;99.90;;;;;;5036511;28;20063;-68
2023/07/05 12:32:51;;;;;;;8.57;1.30;;;12.30;99.90;;;;;;5037389;28;20037;-67
2023/07/05 12:35:28;;;;;;;3.80;1.50;;;12.30;99.90;;;;;;5043796;28;20128;-68
2023/07/05 12:37:55;;;;;;;5.35;1.50;;;12.30;99.90;;;;;;5039838;28;20042;-68
2023/07/05 12:40:38;;;;;;;3.28;1.40;;;12.40;99.90;;;;;;5029187;28;20041;-70
2023/07/05 12:43:08;;;;;;;4.70;1.42;;;12.50;99.90;;;;;;5032558;28;20041;-68
2023/07/05 12:45:37;;;;;;;6.25;1.40;;;12.50;99.90;;;;;;5030556;28;20492;-70
2023/07/05 12:48:25;;;;;;;6.30;1.42;;;12.60;99.90;;;;;;5035425;28;20132;-69
2023/07/05 12:51:10;;;;;;;7.57;1.67;;;12.70;99.90;;;;;;5038913;28;20052;-69
2023/07/05 12:53:37;;;;;;;4.80;1.58;;;12.70;99.90;;;;;;5041351;28;20048;-69
2023/07/05 12:56:10;;;;;;;6.65;1.75;;;12.70;99.90;;;;;;5014802;28;20048;-70